Time;durP1;ratioP1;P1;durP2;ratioP2;P2;SDS_P1;SDS_P2;PMS_P1;PMS_P2;Temp;Humidity;BMP_temperature;BMP_pressure;BME280_temperature;BME280_humidity;BME280_pressure;Samples;Min_cycle;Max_cycle;Signal;HPM_P1;HPM_P2
2023/08/21 00:00:15;;;;;;;57.87;4.17;;;;;;;;;;5051411;28;20452;-69
2023/08/21 00:02:42;;;;;;;57.97;3.53;;;;;;;;;;5050900;28;20484;-69
2023/08/21 00:05:11;;;;;;;58.90;4.13;;;;;;;;;;5051308;28;20468;-68
2023/08/21 00:07:38;;;;;;;57.97;3.90;;;;;;;;;;5051325;28;20547;-69
2023/08/21 00:10:05;;;;;;;58.20;2.80;;;;;;;;;;5051352;28;20452;-69
2023/08/21 00:12:32;;;;;;;56.63;2.70;;;;;;;;;;5050988;28;20444;-69
2023/08/21 00:14:59;;;;;;;56.97;2.90;;;;;;;;;;5051061;28;21032;-69
2023/08/21 00:17:27;;;;;;;58.00;3.10;;;;;;;;;;5051294;28;20447;-69
2023/08/21 00:19:54;;;;;;;58.50;4.00;;;;;;;;;;5051120;28;20448;-69
2023/08/21 00:22:22;;;;;;;56.80;2.93;;;;;;;;;;5051112;28;20458;-69
2023/08/21 00:24:49;;;;;;;57.40;2.90;;;;;;;;;;5051167;28;20843;-68
2023/08/21 00:27:16;;;;;;;56.70;2.57;;;;;;;;;;5050525;28;20447;-68
2023/08/21 00:29:43;;;;;;;56.50;2.67;;;;;;;;;;5050831;28;20452;-69
2023/08/21 00:32:12;;;;;;;58.63;3.67;;;;;;;;;;5051014;28;20456;-69
2023/08/21 00:34:39;;;;;;;61.97;3.87;;;;;;;;;;5050756;28;20515;-69
2023/08/21 00:37:06;;;;;;;57.57;3.23;;;;;;;;;;5050844;28;20487;-69
2023/08/21 00:39:35;;;;;;;58.23;4.43;;;;;;;;;;5050872;28;20956;-68
2023/08/21 00:42:02;;;;;;;58.40;3.93;;;;;;;;;;5050526;28;20456;-69
2023/08/21 00:44:29;;;;;;;56.73;3.00;;;;;;;;;;5050962;28;20471;-68
2023/08/21 00:46:56;;;;;;;56.97;2.47;;;;;;;;;;5050850;28;20448;-68
2023/08/21 00:49:23;;;;;;;56.80;3.20;;;;;;;;;;5050863;28;20444;-68
2023/08/21 00:51:51;;;;;;;57.20;3.30;;;;;;;;;;5050661;28;20449;-68
2023/08/21 00:54:18;;;;;;;56.67;2.90;;;;;;;;;;5050544;28;21037;-68
2023/08/21 00:56:47;;;;;;;57.00;3.00;;;;;;;;;;5050648;28;20474;-68
2023/08/21 00:59:14;;;;;;;57.00;2.70;;;;;;;;;;5050629;28;20445;-68
2023/08/21 01:01:42;;;;;;;57.67;3.47;;;;;;;;;;5050662;28;20448;-69
2023/08/21 01:04:09;;;;;;;56.87;2.87;;;;;;;;;;5050585;28;20746;-68
2023/08/21 01:06:36;;;;;;;57.50;2.77;;;;;;;;;;5050638;28;20451;-68
2023/08/21 01:09:07;;;;;;;58.00;3.50;;;;;;;;;;5050560;28;20451;-68
2023/08/21 01:11:37;;;;;;;57.67;3.63;;;;;;;;;;5050595;28;20498;-68
2023/08/21 01:14:10;;;;;;;57.33;2.80;;;;;;;;;;5050552;28;20484;-68
2023/08/21 01:16:39;;;;;;;57.40;2.73;;;;;;;;;;5050678;28;20448;-68
2023/08/21 01:19:10;;;;;;;57.10;3.20;;;;;;;;;;5050557;28;20462;-68
2023/08/21 01:21:37;;;;;;;56.90;2.60;;;;;;;;;;5050238;28;21217;-68
2023/08/21 01:24:06;;;;;;;57.50;3.10;;;;;;;;;;5050551;28;20467;-67
2023/08/21 01:26:33;;;;;;;57.63;3.30;;;;;;;;;;5050471;28;20442;-68
2023/08/21 01:29:00;;;;;;;56.97;2.70;;;;;;;;;;5050574;28;20984;-68
2023/08/21 01:31:28;;;;;;;57.57;3.10;;;;;;;;;;5050486;28;20440;-68
2023/08/21 01:33:59;;;;;;;57.20;2.80;;;;;;;;;;5050166;28;20582;-68
2023/08/21 01:36:27;;;;;;;58.27;3.67;;;;;;;;;;5050329;28;20521;-68
2023/08/21 01:38:54;;;;;;;57.60;3.30;;;;;;;;;;5050526;28;20443;-68
2023/08/21 01:41:26;;;;;;;57.30;2.83;;;;;;;;;;5053698;28;20448;-68
2023/08/21 01:43:53;;;;;;;56.77;2.63;;;;;;;;;;5052651;28;20456;-68
2023/08/21 01:46:20;;;;;;;57.67;3.60;;;;;;;;;;5054177;28;20436;-68
2023/08/21 01:48:47;;;;;;;57.07;3.30;;;;;;;;;;5054123;28;20442;-68
2023/08/21 01:51:14;;;;;;;58.10;3.50;;;;;;;;;;5053846;28;20454;-68
2023/08/21 01:53:41;;;;;;;58.33;3.50;;;;;;;;;;5053459;28;20492;-68
2023/08/21 01:56:08;;;;;;;57.57;3.40;;;;;;;;;;5053834;28;20447;-68
2023/08/21 01:58:37;;;;;;;57.57;3.50;;;;;;;;;;5053930;28;20450;-69
2023/08/21 02:01:04;;;;;;;57.70;3.47;;;;;;;;;;5054027;28;20534;-68
2023/08/21 02:03:32;;;;;;;57.50;3.43;;;;;;;;;;5053612;28;20460;-68
2023/08/21 02:05:59;;;;;;;57.83;3.20;;;;;;;;;;5053857;28;20450;-68
2023/08/21 02:08:27;;;;;;;57.47;3.23;;;;;;;;;;5053627;28;20826;-68
2023/08/21 02:10:54;;;;;;;57.10;3.03;;;;;;;;;;5053497;28;20851;-68
2023/08/21 02:13:21;;;;;;;58.30;2.97;;;;;;;;;;5053015;28;21003;-68
2023/08/21 02:15:50;;;;;;;58.27;3.57;;;;;;;;;;5053674;28;20440;-68
2023/08/21 02:18:17;;;;;;;58.30;3.47;;;;;;;;;;5053545;28;20523;-68
2023/08/21 02:20:44;;;;;;;57.00;3.17;;;;;;;;;;5053430;28;20502;-68
2023/08/21 02:23:11;;;;;;;57.23;3.00;;;;;;;;;;5052885;28;20895;-68
2023/08/21 02:25:38;;;;;;;59.20;3.37;;;;;;;;;;5053472;28;20444;-68
2023/08/21 02:28:06;;;;;;;58.23;3.93;;;;;;;;;;5053622;28;20466;-68
2023/08/21 02:30:33;;;;;;;57.60;3.33;;;;;;;;;;5053308;28;20471;-68
2023/08/21 02:33:02;;;;;;;57.67;3.40;;;;;;;;;;5052971;28;20444;-68
2023/08/21 02:35:29;;;;;;;57.93;2.80;;;;;;;;;;5052860;28;20502;-68
2023/08/21 02:37:56;;;;;;;58.57;3.40;;;;;;;;;;5052842;28;20461;-68
2023/08/21 02:40:24;;;;;;;57.57;3.37;;;;;;;;;;5053460;28;20444;-68
2023/08/21 02:42:51;;;;;;;56.97;2.70;;;;;;;;;;5052857;28;20860;-68
2023/08/21 02:45:19;;;;;;;58.47;2.97;;;;;;;;;;5053008;28;20464;-68
2023/08/21 02:47:46;;;;;;;56.77;2.87;;;;;;;;;;5052891;28;20456;-69
2023/08/21 02:50:14;;;;;;;57.83;3.00;;;;;;;;;;5052423;28;20478;-68
2023/08/21 02:52:42;;;;;;;62.07;4.73;;;;;;;;;;5052465;28;20440;-68
2023/08/21 02:55:09;;;;;;;57.10;2.73;;;;;;;;;;5052607;28;20587;-68
2023/08/21 02:57:36;;;;;;;57.87;3.80;;;;;;;;;;5052767;28;20448;-68
2023/08/21 03:00:04;;;;;;;59.80;4.17;;;;;;;;;;5052755;28;20955;-68
2023/08/21 03:02:31;;;;;;;57.80;3.33;;;;;;;;;;5052343;28;20970;-68
2023/08/21 03:04:58;;;;;;;57.83;3.77;;;;;;;;;;5052438;28;20458;-69
2023/08/21 03:07:26;;;;;;;57.77;3.17;;;;;;;;;;5052392;28;20940;-69
2023/08/21 03:09:53;;;;;;;62.63;3.80;;;;;;;;;;5052694;28;20750;-69
2023/08/21 03:12:21;;;;;;;57.27;2.80;;;;;;;;;;5052042;28;20479;-69
2023/08/21 03:14:48;;;;;;;57.90;3.50;;;;;;;;;;5052271;28;20861;-69
2023/08/21 03:17:15;;;;;;;56.77;2.50;;;;;;;;;;5052426;28;20440;-69
2023/08/21 03:19:42;;;;;;;57.37;3.30;;;;;;;;;;5052272;28;20449;-69
2023/08/21 03:22:09;;;;;;;57.50;3.70;;;;;;;;;;5052205;28;20470;-69
2023/08/21 03:24:38;;;;;;;57.47;2.60;;;;;;;;;;5052222;28;20464;-68
2023/08/21 03:27:05;;;;;;;58.70;2.93;;;;;;;;;;5052087;28;20444;-69
2023/08/21 03:29:32;;;;;;;57.10;2.67;;;;;;;;;;5052111;28;20842;-69
2023/08/21 03:31:59;;;;;;;58.07;3.37;;;;;;;;;;5051780;28;20454;-69
2023/08/21 03:34:27;;;;;;;57.30;2.80;;;;;;;;;;5052277;28;20491;-69
2023/08/21 03:36:54;;;;;;;58.40;3.47;;;;;;;;;;5051803;28;21034;-67
2023/08/21 03:39:21;;;;;;;57.87;3.00;;;;;;;;;;5052150;28;20444;-68
2023/08/21 03:41:49;;;;;;;58.17;4.90;;;;;;;;;;5051789;28;20839;-68
2023/08/21 03:44:16;;;;;;;57.27;2.90;;;;;;;;;;5051778;28;20467;-68
2023/08/21 03:46:43;;;;;;;57.77;3.50;;;;;;;;;;5051669;28;20884;-67
2023/08/21 03:49:10;;;;;;;57.77;3.87;;;;;;;;;;5052088;28;20441;-68
2023/08/21 03:51:38;;;;;;;58.20;3.53;;;;;;;;;;5051805;28;20953;-68
2023/08/21 03:54:05;;;;;;;57.57;3.40;;;;;;;;;;5051426;28;20579;-68
2023/08/21 03:56:32;;;;;;;57.10;2.60;;;;;;;;;;5051523;28;20456;-69
2023/08/21 03:59:01;;;;;;;57.33;2.50;;;;;;;;;;5051777;28;20452;-69
2023/08/21 04:01:28;;;;;;;57.10;2.90;;;;;;;;;;5051424;28;20457;-69
2023/08/21 04:03:55;;;;;;;56.90;2.70;;;;;;;;;;5050553;28;20468;-69
2023/08/21 04:06:22;;;;;;;57.30;3.10;;;;;;;;;;5051624;28;20440;-69
2023/08/21 04:08:49;;;;;;;56.60;2.63;;;;;;;;;;5051517;28;20451;-69
2023/08/21 04:11:16;;;;;;;57.17;2.70;;;;;;;;;;5051287;28;20543;-69
2023/08/21 04:13:44;;;;;;;56.97;2.93;;;;;;;;;;5050836;28;20464;-69
2023/08/21 04:16:12;;;;;;;57.97;4.23;;;;;;;;;;5051180;28;20445;-69
2023/08/21 04:18:39;;;;;;;57.30;2.70;;;;;;;;;;5051431;28;20488;-68
2023/08/21 04:21:07;;;;;;;57.50;3.13;;;;;;;;;;5051113;28;20944;-68
2023/08/21 04:23:34;;;;;;;59.03;3.37;;;;;;;;;;5051066;28;20456;-68
2023/08/21 04:26:02;;;;;;;57.10;3.23;;;;;;;;;;5050950;28;20447;-68
2023/08/21 04:28:29;;;;;;;58.87;3.30;;;;;;;;;;5051093;28;20502;-68
2023/08/21 04:30:57;;;;;;;57.27;2.87;;;;;;;;;;5051024;28;20444;-68
2023/08/21 04:33:26;;;;;;;57.97;3.80;;;;;;;;;;5050935;28;20451;-68
2023/08/21 04:35:53;;;;;;;57.50;3.30;;;;;;;;;;5050912;28;20483;-68
2023/08/21 04:38:20;;;;;;;57.20;2.73;;;;;;;;;;5050854;28;20468;-68
2023/08/21 04:40:47;;;;;;;58.00;3.60;;;;;;;;;;5051254;28;20947;-68
2023/08/21 04:43:14;;;;;;;59.27;4.20;;;;;;;;;;5050817;28;20452;-68
2023/08/21 04:45:47;;;;;;;57.60;3.00;;;;;;;;;;5050799;28;20994;-68
2023/08/21 04:48:14;;;;;;;57.57;3.23;;;;;;;;;;5050825;28;20950;-68
2023/08/21 04:50:42;;;;;;;58.27;3.17;;;;;;;;;;5050849;28;20455;-68
2023/08/21 04:53:10;;;;;;;59.30;3.97;;;;;;;;;;5050376;28;20535;-68
2023/08/21 04:55:37;;;;;;;57.00;3.00;;;;;;;;;;5050524;28;20483;-68
2023/08/21 04:58:04;;;;;;;57.47;3.20;;;;;;;;;;5050965;28;20539;-68
2023/08/21 05:00:31;;;;;;;58.10;4.00;;;;;;;;;;5050714;28;20452;-68
2023/08/21 05:02:58;;;;;;;57.10;2.50;;;;;;;;;;5050367;28;20444;-68
2023/08/21 05:05:25;;;;;;;57.70;3.37;;;;;;;;;;5050531;28;20467;-68
2023/08/21 05:07:55;;;;;;;58.07;4.33;;;;;;;;;;5050528;28;20444;-68
2023/08/21 05:10:22;;;;;;;57.70;3.30;;;;;;;;;;5050817;28;20479;-68
2023/08/21 05:12:49;;;;;;;57.90;3.60;;;;;;;;;;5050468;28;20791;-68
2023/08/21 05:15:16;;;;;;;57.00;2.80;;;;;;;;;;5053957;28;20500;-68
2023/08/21 05:17:43;;;;;;;57.07;3.17;;;;;;;;;;5054626;28;20452;-68
2023/08/21 05:20:13;;;;;;;57.67;3.13;;;;;;;;;;5054472;28;20721;-68
2023/08/21 05:22:40;;;;;;;57.87;2.90;;;;;;;;;;5054444;28;20823;-68
2023/08/21 05:25:10;;;;;;;57.63;3.53;;;;;;;;;;5054703;28;20460;-68
2023/08/21 05:27:37;;;;;;;57.90;3.33;;;;;;;;;;5054498;28;20440;-68
2023/08/21 05:30:04;;;;;;;57.57;3.00;;;;;;;;;;5054323;28;20462;-68
2023/08/21 05:32:31;;;;;;;57.60;3.17;;;;;;;;;;5054026;28;20917;-68
2023/08/21 05:34:59;;;;;;;57.57;3.23;;;;;;;;;;5054063;28;20488;-68
2023/08/21 05:37:26;;;;;;;56.80;2.97;;;;;;;;;;5054320;28;20466;-68
2023/08/21 05:39:54;;;;;;;57.90;4.07;;;;;;;;;;5054148;28;20936;-68
2023/08/21 05:42:22;;;;;;;57.43;3.13;;;;;;;;;;5054204;28;20456;-68
2023/08/21 05:44:49;;;;;;;56.60;2.57;;;;;;;;;;5054080;28;20464;-68
2023/08/21 05:47:16;;;;;;;57.90;3.17;;;;;;;;;;5054087;28;20479;-68
2023/08/21 05:49:44;;;;;;;57.00;3.43;;;;;;;;;;5054055;28;20951;-68
2023/08/21 05:52:11;;;;;;;56.93;3.33;;;;;;;;;;5054129;28;20813;-68
2023/08/21 05:54:38;;;;;;;57.97;4.80;;;;;;;;;;5054049;28;20673;-68
2023/08/21 05:57:05;;;;;;;58.87;3.97;;;;;;;;;;5053915;28;20448;-68
2023/08/21 05:59:34;;;;;;;57.73;3.67;;;;;;;;;;5054142;28;20470;-68
2023/08/21 06:02:01;;;;;;;56.97;3.07;;;;;;;;;;5053516;28;20446;-68
2023/08/21 06:04:28;;;;;;;59.40;4.80;;;;;;;;;;5054004;28;20479;-68
2023/08/21 06:06:55;;;;;;;57.57;3.20;;;;;;;;;;5053968;28;20444;-68
2023/08/21 06:09:24;;;;;;;57.90;3.20;;;;;;;;;;5053778;28;20448;-68
2023/08/21 06:11:51;;;;;;;57.70;3.40;;;;;;;;;;5053630;28;20820;-68
2023/08/21 06:14:18;;;;;;;59.10;3.70;;;;;;;;;;5053492;28;20467;-68
2023/08/21 06:16:46;;;;;;;56.37;2.50;;;;;;;;;;5053307;28;20446;-68
2023/08/21 06:19:13;;;;;;;59.23;3.30;;;;;;;;;;5053587;28;20440;-68
2023/08/21 06:21:40;;;;;;;56.97;2.60;;;;;;;;;;5053345;28;20444;-68
2023/08/21 06:24:08;;;;;;;57.10;3.43;;;;;;;;;;5053322;28;20472;-68
2023/08/21 06:26:35;;;;;;;57.27;3.07;;;;;;;;;;5052431;28;20436;-68
2023/08/21 06:29:02;;;;;;;57.57;3.20;;;;;;;;;;5053146;28;20856;-69
2023/08/21 06:31:29;;;;;;;57.67;3.43;;;;;;;;;;5053459;28;20444;-68
2023/08/21 06:33:58;;;;;;;56.37;2.50;;;;;;;;;;5052937;28;20992;-69
2023/08/21 06:36:25;;;;;;;56.57;2.50;;;;;;;;;;5053068;28;20490;-68
2023/08/21 06:38:52;;;;;;;57.80;3.90;;;;;;;;;;5053133;28;20987;-66
2023/08/21 06:41:19;;;;;;;58.77;4.20;;;;;;;;;;5052959;28;20933;-69
2023/08/21 06:43:47;;;;;;;57.87;3.40;;;;;;;;;;5053135;28;20464;-69
2023/08/21 06:46:14;;;;;;;57.70;3.00;;;;;;;;;;5052799;28;20959;-66
2023/08/21 06:48:41;;;;;;;56.90;2.87;;;;;;;;;;5053061;28;20444;-68
2023/08/21 06:51:10;;;;;;;56.27;2.47;;;;;;;;;;5053045;28;20448;-68
2023/08/21 06:53:37;;;;;;;58.07;3.33;;;;;;;;;;5052624;28;20464;-68
2023/08/21 06:56:04;;;;;;;58.23;3.63;;;;;;;;;;5052530;28;20870;-68
2023/08/21 06:58:31;;;;;;;56.80;2.60;;;;;;;;;;5053015;28;20450;-68
2023/08/21 07:00:58;;;;;;;56.60;2.97;;;;;;;;;;5052913;28;20827;-68
2023/08/21 07:03:25;;;;;;;57.47;3.10;;;;;;;;;;5052495;28;20461;-68
2023/08/21 07:05:56;;;;;;;57.13;2.30;;;;;;;;;;5052633;28;20440;-68
2023/08/21 07:08:25;;;;;;;57.17;3.00;;;;;;;;;;5052640;28;20925;-68
2023/08/21 07:10:52;;;;;;;58.70;3.30;;;;;;;;;;5052473;28;20541;-69
2023/08/21 07:13:20;;;;;;;58.60;3.73;;;;;;;;;;5052370;28;20455;-68
2023/08/21 07:15:47;;;;;;;56.77;2.73;;;;;;;;;;5052234;28;20484;-68
2023/08/21 07:18:14;;;;;;;56.77;2.70;;;;;;;;;;5052404;28;20451;-68
2023/08/21 07:20:41;;;;;;;57.50;3.50;;;;;;;;;;5052302;28;20471;-69
2023/08/21 07:23:08;;;;;;;57.23;3.00;;;;;;;;;;5051769;28;20455;-69
2023/08/21 07:25:37;;;;;;;56.80;2.43;;;;;;;;;;5052153;28;20468;-68
2023/08/21 07:28:04;;;;;;;57.23;2.80;;;;;;;;;;5052478;28;20444;-68
2023/08/21 07:30:31;;;;;;;57.77;3.77;;;;;;;;;;5052108;28;21050;-69
2023/08/21 07:32:58;;;;;;;58.20;3.93;;;;;;;;;;5051937;28;20531;-69
2023/08/21 07:35:26;;;;;;;58.00;3.93;;;;;;;;;;5051684;28;20488;-69
2023/08/21 07:37:53;;;;;;;57.10;2.93;;;;;;;;;;5051845;28;20953;-68
2023/08/21 07:40:20;;;;;;;57.27;3.43;;;;;;;;;;5052157;28;20459;-69
2023/08/21 07:42:48;;;;;;;57.00;2.90;;;;;;;;;;5051908;28;20448;-69
2023/08/21 07:45:15;;;;;;;57.83;3.07;;;;;;;;;;5051695;28;20852;-68
2023/08/21 07:47:42;;;;;;;57.20;2.87;;;;;;;;;;5051891;28;20451;-69
2023/08/21 07:50:10;;;;;;;57.50;2.97;;;;;;;;;;5051872;28;20535;-69
2023/08/21 07:52:37;;;;;;;56.60;2.67;;;;;;;;;;5051365;28;21042;-69
2023/08/21 07:55:05;;;;;;;57.17;3.00;;;;;;;;;;5051719;28;20466;-69
2023/08/21 07:57:32;;;;;;;56.70;2.50;;;;;;;;;;5051560;28;20444;-69
2023/08/21 08:00:00;;;;;;;57.20;2.70;;;;;;;;;;5051674;28;20444;-69
2023/08/21 08:02:27;;;;;;;57.30;3.40;;;;;;;;;;5051325;28;20437;-69
2023/08/21 08:04:55;;;;;;;57.80;3.40;;;;;;;;;;5051192;28;20468;-69
2023/08/21 08:07:22;;;;;;;56.77;2.93;;;;;;;;;;5051660;28;20444;-70
2023/08/21 08:09:49;;;;;;;57.27;2.70;;;;;;;;;;5051273;28;20479;-69
2023/08/21 08:12:16;;;;;;;57.00;2.87;;;;;;;;;;5051325;28;20455;-70
2023/08/21 08:14:43;;;;;;;56.87;3.00;;;;;;;;;;5051624;28;20468;-69
2023/08/21 08:17:12;;;;;;;56.47;2.47;;;;;;;;;;5051090;28;20479;-68
2023/08/21 08:19:39;;;;;;;56.60;3.30;;;;;;;;;;5051017;28;20444;-69
2023/08/21 08:22:06;;;;;;;57.47;2.97;;;;;;;;;;5051038;28;20448;-69
2023/08/21 08:24:33;;;;;;;58.07;3.83;;;;;;;;;;5051192;28;20825;-69
2023/08/21 08:27:01;;;;;;;57.07;2.50;;;;;;;;;;5051215;28;20444;-69
2023/08/21 08:29:28;;;;;;;56.83;2.97;;;;;;;;;;5051159;28;20456;-70
2023/08/21 08:31:55;;;;;;;58.57;2.17;;;;;;;;;;5050670;28;20444;-69
2023/08/21 08:34:24;;;;;;;56.60;3.07;;;;;;;;;;5050986;28;20567;-69
2023/08/21 08:36:51;;;;;;;59.40;4.47;;;;;;;;;;5050983;28;20492;-68
2023/08/21 08:39:18;;;;;;;57.20;3.10;;;;;;;;;;5051061;28;20618;-69
2023/08/21 08:41:50;;;;;;;57.40;3.03;;;;;;;;;;5050654;28;20449;-69
2023/08/21 08:44:17;;;;;;;56.60;2.43;;;;;;;;;;5050861;28;20972;-69
2023/08/21 08:46:45;;;;;;;56.50;2.67;;;;;;;;;;5050754;28;20452;-68
2023/08/21 08:49:12;;;;;;;56.87;2.70;;;;;;;;;;5050528;28;20819;-68
2023/08/21 08:51:41;;;;;;;56.50;2.30;;;;;;;;;;5050717;28;20448;-69
2023/08/21 08:54:08;;;;;;;56.50;2.30;;;;;;;;;;5050732;28;20472;-69
2023/08/21 08:56:35;;;;;;;56.37;2.60;;;;;;;;;;5050649;28;20488;-69
2023/08/21 08:59:02;;;;;;;56.20;2.10;;;;;;;;;;5050494;28;20450;-69
2023/08/21 09:01:30;;;;;;;58.77;3.97;;;;;;;;;;5050646;28;20956;-69
2023/08/21 09:03:57;;;;;;;56.47;2.67;;;;;;;;;;5050552;28;20468;-69
2023/08/21 09:06:24;;;;;;;56.80;3.07;;;;;;;;;;5050628;28;20443;-69
2023/08/21 09:08:56;;;;;;;56.40;2.53;;;;;;;;;;5050707;28;20452;-70
2023/08/21 09:11:23;;;;;;;57.57;2.57;;;;;;;;;;5050747;28;20941;-69
2023/08/21 09:13:51;;;;;;;57.27;2.80;;;;;;;;;;5050316;28;20471;-70
2023/08/21 09:16:19;;;;;;;56.70;2.90;;;;;;;;;;5050480;28;20480;-70
2023/08/21 09:18:49;;;;;;;57.00;3.10;;;;;;;;;;5050583;28;20466;-70
2023/08/21 09:21:19;;;;;;;57.77;3.80;;;;;;;;;;5050681;28;20450;-69
2023/08/21 09:23:47;;;;;;;56.90;3.27;;;;;;;;;;5050186;28;20472;-70
2023/08/21 09:26:21;;;;;;;56.80;2.50;;;;;;;;;;5050189;28;20475;-70
2023/08/21 09:28:49;;;;;;;57.53;3.53;;;;;;;;;;5050697;28;20461;-70
2023/08/21 09:31:16;;;;;;;57.30;2.97;;;;;;;;;;5050529;28;20447;-70
2023/08/21 09:33:43;;;;;;;57.87;4.03;;;;;;;;;;5050299;28;20472;-70
2023/08/21 09:36:11;;;;;;;56.60;2.37;;;;;;;;;;5050230;28;20476;-70
2023/08/21 09:38:40;;;;;;;56.97;3.37;;;;;;;;;;5050102;28;20517;-70
2023/08/21 09:41:08;;;;;;;58.17;3.10;;;;;;;;;;5050388;28;20498;-70
2023/08/21 09:43:42;;;;;;;56.33;2.20;;;;;;;;;;5050148;28;20464;-70
2023/08/21 09:46:09;;;;;;;56.10;2.50;;;;;;;;;;5050165;28;20948;-70
2023/08/21 09:48:36;;;;;;;56.30;2.27;;;;;;;;;;5050226;28;20531;-70
2023/08/21 09:51:05;;;;;;;56.60;2.60;;;;;;;;;;5050344;28;20451;-70
2023/08/21 09:53:32;;;;;;;59.60;5.10;;;;;;;;;;5050062;28;20465;-70
2023/08/21 09:56:03;;;;;;;57.00;2.97;;;;;;;;;;5050015;28;20472;-71
2023/08/21 09:58:30;;;;;;;56.20;2.20;;;;;;;;;;5050314;28;20443;-70
2023/08/21 10:01:00;;;;;;;56.90;3.03;;;;;;;;;;5051224;28;20447;-70
2023/08/21 10:03:27;;;;;;;56.63;2.60;;;;;;;;;;5053426;28;20468;-70
2023/08/21 10:05:56;;;;;;;56.27;2.50;;;;;;;;;;5054111;28;20982;-68
2023/08/21 10:08:25;;;;;;;56.97;3.03;;;;;;;;;;5053633;28;20454;-69
2023/08/21 10:10:53;;;;;;;57.00;3.30;;;;;;;;;;5053846;28;20446;-69
2023/08/21 10:13:20;;;;;;;57.00;3.07;;;;;;;;;;5053427;28;20455;-69
2023/08/21 10:15:47;;;;;;;56.07;2.50;;;;;;;;;;5053416;28;20444;-70
2023/08/21 10:18:26;;;;;;;56.97;3.03;;;;;;;;;;5053354;28;20450;-69
2023/08/21 10:20:54;;;;;;;55.90;2.17;;;;;;;;;;5053662;28;20810;-71
2023/08/21 10:23:28;;;;;;;55.90;2.90;;;;;;;;;;5053278;28;20531;-70
2023/08/21 10:25:58;;;;;;;56.17;3.30;;;;;;;;;;5053457;28;20439;-67
2023/08/21 10:28:25;;;;;;;56.00;2.93;;;;;;;;;;5053320;28;20510;-68
2023/08/21 10:30:53;;;;;;;56.27;2.80;;;;;;;;;;5053035;28;20532;-69
2023/08/21 10:33:40;;;;;;;55.37;2.67;;;;;;;;;;5052776;28;20823;-69
2023/08/21 10:36:11;;;;;;;55.10;2.27;;;;;;;;;;5052817;28;20490;-69
2023/08/21 10:39:00;;;;;;;54.93;2.50;;;;;;;;;;5053372;28;20958;-69
2023/08/21 10:41:28;;;;;;;54.60;2.40;;;;;;;;;;5053222;28;20799;-69
2023/08/21 10:43:55;;;;;;;54.90;2.30;;;;;;;;;;5052850;28;20993;-70
2023/08/21 10:46:22;;;;;;;55.50;2.87;;;;;;;;;;5052925;28;20543;-70
2023/08/21 10:48:50;;;;;;;54.73;2.50;;;;;;;;;;5052879;28;20449;-70
2023/08/21 10:51:18;;;;;;;54.90;2.00;;;;;;;;;;5052793;28;20448;-70
2023/08/21 10:53:45;;;;;;;56.07;2.43;;;;;;;;;;5052336;28;20465;-70
2023/08/21 10:56:13;;;;;;;55.27;2.60;;;;;;;;;;5052831;28;20557;-70
2023/08/21 10:58:40;;;;;;;55.13;2.47;;;;;;;;;;5052905;28;20449;-70
2023/08/21 11:01:07;;;;;;;55.07;2.50;;;;;;;;;;5052494;28;20447;-70
2023/08/21 11:03:34;;;;;;;54.50;2.40;;;;;;;;;;5052333;28;20829;-70
2023/08/21 11:06:02;;;;;;;55.00;2.43;;;;;;;;;;5052478;28;20445;-70
2023/08/21 11:08:31;;;;;;;54.57;2.43;;;;;;;;;;5052639;28;20453;-70
2023/08/21 11:10:58;;;;;;;54.90;2.63;;;;;;;;;;5052654;28;20452;-69
2023/08/21 11:13:26;;;;;;;54.90;2.10;;;;;;;;;;5051954;28;20448;-69
2023/08/21 11:15:59;;;;;;;55.67;2.50;;;;;;;;;;5052315;28;20458;-69
2023/08/21 11:18:31;;;;;;;54.80;2.60;;;;;;;;;;5052383;28;20440;-70
2023/08/21 11:21:05;;;;;;;54.83;3.13;;;;;;;;;;5052494;28;20814;-70
2023/08/21 11:23:35;;;;;;;55.00;2.70;;;;;;;;;;5051980;28;20468;-70
2023/08/21 11:26:03;;;;;;;54.57;2.57;;;;;;;;;;5052280;28;20854;-70
2023/08/21 11:28:31;;;;;;;54.93;3.00;;;;;;;;;;5052167;28;20444;-70
2023/08/21 11:30:58;;;;;;;54.77;2.70;;;;;;;;;;5052091;28;20448;-70
2023/08/21 11:33:27;;;;;;;54.60;2.70;;;;;;;;;;5051734;28;20448;-70
2023/08/21 11:35:54;;;;;;;54.70;2.40;;;;;;;;;;5052338;28;20539;-70
2023/08/21 11:38:22;;;;;;;54.60;2.37;;;;;;;;;;5051929;28;20863;-70
2023/08/21 11:40:57;;;;;;;54.73;2.30;;;;;;;;;;5051958;28;20448;-70
2023/08/21 11:43:24;;;;;;;56.07;2.60;;;;;;;;;;5051505;28;20450;-69
2023/08/21 11:45:52;;;;;;;55.50;2.60;;;;;;;;;;5051585;28;20823;-69
2023/08/21 11:48:21;;;;;;;55.30;2.27;;;;;;;;;;5051880;28;20451;-69
2023/08/21 11:50:50;;;;;;;54.87;2.70;;;;;;;;;;5051955;28;20499;-70
2023/08/21 11:53:28;;;;;;;54.63;2.03;;;;;;;;;;5051434;28;20452;-69
2023/08/21 11:55:56;;;;;;;55.63;2.80;;;;;;;;;;5051572;28;20444;-70
2023/08/21 11:58:24;;;;;;;54.70;2.60;;;;;;;;;;5051472;28;20810;-70
2023/08/21 12:00:51;;;;;;;54.53;2.40;;;;;;;;;;5051678;28;20448;-69
2023/08/21 12:03:19;;;;;;;54.83;2.43;;;;;;;;;;5051268;28;20444;-69
2023/08/21 12:05:46;;;;;;;55.97;3.20;;;;;;;;;;5051494;28;20440;-69
2023/08/21 12:08:14;;;;;;;54.07;2.30;;;;;;;;;;5051483;28;20452;-69
2023/08/21 12:10:41;;;;;;;54.60;3.03;;;;;;;;;;5051242;28;20932;-69
2023/08/21 12:13:09;;;;;;;54.40;2.87;;;;;;;;;;5051160;28;20456;-70
2023/08/21 12:15:36;;;;;;;54.70;3.10;;;;;;;;;;5051262;28;20459;-70
2023/08/21 12:18:04;;;;;;;54.50;2.90;;;;;;;;;;5051409;28;20799;-70
2023/08/21 12:20:31;;;;;;;56.10;3.30;;;;;;;;;;5051196;28;20454;-70
2023/08/21 12:22:58;;;;;;;53.87;2.67;;;;;;;;;;5050461;28;20444;-70
2023/08/21 12:25:25;;;;;;;55.03;3.10;;;;;;;;;;5050605;28;20566;-70
2023/08/21 12:27:52;;;;;;;53.77;3.00;;;;;;;;;;5051442;28;20484;-70
2023/08/21 12:30:20;;;;;;;53.80;3.27;;;;;;;;;;5051070;28;20452;-70
2023/08/21 12:32:48;;;;;;;54.30;3.00;;;;;;;;;;5050936;28;20486;-70
2023/08/21 12:35:15;;;;;;;54.40;2.53;;;;;;;;;;5050891;28;20475;-70
2023/08/21 12:37:42;;;;;;;54.10;2.80;;;;;;;;;;5050879;28;20482;-70
2023/08/21 12:40:09;;;;;;;54.80;3.60;;;;;;;;;;5051286;28;20460;-71
2023/08/21 12:42:36;;;;;;;54.00;2.63;;;;;;;;;;5050702;28;20450;-70
2023/08/21 12:45:04;;;;;;;53.63;3.20;;;;;;;;;;5050945;28;20839;-70
2023/08/21 12:47:33;;;;;;;54.17;2.60;;;;;;;;;;5050665;28;20482;-70
2023/08/21 12:50:00;;;;;;;54.50;3.10;;;;;;;;;;5050869;28;20448;-70
2023/08/21 12:52:27;;;;;;;55.40;3.13;;;;;;;;;;5050428;28;20452;-71
2023/08/21 12:54:54;;;;;;;54.10;3.00;;;;;;;;;;5050875;28;20470;-70
2023/08/21 12:57:21;;;;;;;53.67;3.33;;;;;;;;;;5050590;28;20436;-70
2023/08/21 12:59:48;;;;;;;54.33;2.83;;;;;;;;;;5050688;28;20456;-70
2023/08/21 13:02:15;;;;;;;54.47;2.83;;;;;;;;;;5050313;28;20954;-71
2023/08/21 13:04:44;;;;;;;53.97;2.33;;;;;;;;;;5051235;28;20464;-71
2023/08/21 13:07:11;;;;;;;53.40;2.30;;;;;;;;;;5050469;28;20935;-71
2023/08/21 13:09:38;;;;;;;54.27;2.97;;;;;;;;;;5050724;28;20443;-71
2023/08/21 13:12:06;;;;;;;56.47;2.73;;;;;;;;;;5050478;28;20452;-71
2023/08/21 13:14:33;;;;;;;54.97;2.67;;;;;;;;;;5050508;28;20471;-71
2023/08/21 13:17:00;;;;;;;53.90;2.77;;;;;;;;;;5050449;28;20453;-71
2023/08/21 13:19:27;;;;;;;54.80;2.80;;;;;;;;;;5050661;28;20440;-71
2023/08/21 13:21:55;;;;;;;54.53;2.10;;;;;;;;;;5050152;28;20933;-69
2023/08/21 13:24:22;;;;;;;54.87;2.67;;;;;;;;;;5050824;28;20470;-69
2023/08/21 13:26:49;;;;;;;54.53;3.00;;;;;;;;;;5050400;28;20455;-69
2023/08/21 13:29:16;;;;;;;54.90;2.60;;;;;;;;;;5050386;28;20450;-70
2023/08/21 13:31:44;;;;;;;55.07;2.90;;;;;;;;;;5050146;28;20819;-70
2023/08/21 13:34:11;;;;;;;54.87;2.93;;;;;;;;;;5050753;28;20821;-70
2023/08/21 13:36:39;;;;;;;54.10;2.50;;;;;;;;;;5054209;28;20451;-70
2023/08/21 13:39:10;;;;;;;55.30;3.00;;;;;;;;;;5054425;28;20446;-71
2023/08/21 13:41:37;;;;;;;60.20;2.80;;;;;;;;;;5054327;28;20827;-70
2023/08/21 13:44:04;;;;;;;53.90;2.63;;;;;;;;;;5054058;28;20491;-70
2023/08/21 13:46:31;;;;;;;55.00;2.90;;;;;;;;;;5054020;28;20448;-70
2023/08/21 13:48:59;;;;;;;55.97;2.90;;;;;;;;;;5054250;28;20802;-71
2023/08/21 13:51:26;;;;;;;53.70;2.10;;;;;;;;;;5054149;28;20452;-70
2023/08/21 13:53:53;;;;;;;53.87;2.70;;;;;;;;;;5053700;28;20460;-70
2023/08/21 13:56:21;;;;;;;54.07;2.77;;;;;;;;;;5053820;28;20562;-70
2023/08/21 13:58:48;;;;;;;55.40;2.80;;;;;;;;;;5053925;28;20444;-71
2023/08/21 14:01:15;;;;;;;54.17;2.50;;;;;;;;;;5054471;28;20448;-71
2023/08/21 14:03:43;;;;;;;54.10;2.50;;;;;;;;;;5054920;28;20470;-68
2023/08/21 14:06:11;;;;;;;54.50;2.93;;;;;;;;;;5055577;28;20463;-69
2023/08/21 14:08:38;;;;;;;54.67;2.50;;;;;;;;;;5055956;28;20861;-71
2023/08/21 14:11:05;;;;;;;54.50;2.50;;;;;;;;;;5056301;28;20451;-71
2023/08/21 14:13:34;;;;;;;54.30;2.40;;;;;;;;;;5055941;28;20447;-71
2023/08/21 14:16:01;;;;;;;54.67;2.70;;;;;;;;;;5057447;28;20456;-71
2023/08/21 14:18:28;;;;;;;54.30;2.40;;;;;;;;;;5057251;28;20523;-70
2023/08/21 14:20:55;;;;;;;56.80;3.07;;;;;;;;;;5057204;28;20448;-70
2023/08/21 14:23:22;;;;;;;54.40;2.20;;;;;;;;;;5055568;28;20459;-70
2023/08/21 14:25:49;;;;;;;56.70;2.87;;;;;;;;;;5055993;28;20444;-70
2023/08/21 14:28:16;;;;;;;54.70;2.60;;;;;;;;;;5056240;28;20494;-70
2023/08/21 14:30:46;;;;;;;54.50;2.50;;;;;;;;;;5056173;28;20440;-70
2023/08/21 14:33:14;;;;;;;55.10;2.70;;;;;;;;;;5058626;28;20468;-70